Time,TemperatureF,DewpointF,PressureIn,WindDirection,WindDirectionDegrees,WindSpeedMPH,WindSpeedGustMPH,Humidity,HourlyPrecipIn,Conditions,Clouds,dailyrainin,SolarRadiationWatts/m^2,SoftwareType,DateUTC
2013-03-15 00:00:00,43.0,20.0,-100.00,NNE,12,1.0,3.0,40,0.00,,,-99.99,0.000000,,2013-03-15 06:00:00,
2013-03-15 00:32:00,43.0,20.0,-100.00,NNE,12,1.0,3.0,40,0.00,,,-99.99,0.000000,,2013-03-15 06:32:00,
2013-03-15 00:42:00,43.0,20.0,-100.00,NNE,12,1.0,3.0,40,0.00,,,-99.99,0.000000,,2013-03-15 06:42:00,
2013-03-15 00:52:00,43.0,20.0,-100.00,NNE,12,1.0,3.0,40,0.00,,,-99.99,0.000000,,2013-03-15 06:52:00,
2013-03-15 01:00:00,43.0,21.0,-100.00,NNE,12,1.0,2.0,39,0.00,,,-99.99,0.000000,,2013-03-15 07:00:00,
2013-03-15 01:32:00,43.0,21.0,-100.00,NNE,12,1.0,2.0,39,0.00,,,-99.99,0.000000,,2013-03-15 07:32:00,
2013-03-15 01:42:00,43.0,21.0,-100.00,NNE,12,1.0,2.0,39,0.00,,,-99.99,0.000000,,2013-03-15 07:42:00,
2013-03-15 01:52:00,43.0,21.0,-100.00,NNE,12,1.0,2.0,39,0.00,,,-99.99,0.000000,,2013-03-15 07:52:00,
2013-03-15 02:00:00,43.0,21.0,-100.00,NNE,22,1.0,2.0,41,0.00,,,-99.99,0.000000,,2013-03-15 08:00:00,
2013-03-15 02:32:00,43.0,21.0,-100.00,NNE,22,1.0,2.0,41,0.00,,,-99.99,0.000000,,2013-03-15 08:32:00,
2013-03-15 02:42:00,43.0,21.0,-100.00,NNE,22,1.0,2.0,41,0.00,,,-99.99,0.000000,,2013-03-15 08:42:00,
2013-03-15 02:52:00,43.0,21.0,-100.00,NNE,22,1.0,2.0,41,0.00,,,-99.99,0.000000,,2013-03-15 08:52:00,
2013-03-15 03:00:00,42.0,20.0,-100.00,North,7,0.0,1.0,41,0.00,,,-99.99,0.000000,,2013-03-15 09:00:00,
2013-03-15 03:33:00,42.0,20.0,-100.00,North,7,0.0,1.0,41,0.00,,,-99.99,0.000000,,2013-03-15 09:33:00,
2013-03-15 03:43:00,42.0,20.0,-100.00,North,7,0.0,1.0,41,0.00,,,-99.99,0.000000,,2013-03-15 09:43:00,
2013-03-15 03:52:00,42.0,20.0,-100.00,North,7,0.0,1.0,41,0.00,,,-99.99,0.000000,,2013-03-15 09:52:00,
2013-03-15 04:00:00,42.0,22.0,-100.00,North,351,1.0,2.0,44,0.00,,,-99.99,0.000000,,2013-03-15 10:00:00,
2013-03-15 04:32:00,42.0,22.0,-100.00,North,351,1.0,2.0,44,0.00,,,-99.99,0.000000,,2013-03-15 10:32:00,
2013-03-15 04:42:00,42.0,22.0,-100.00,North,351,1.0,2.0,44,0.00,,,-99.99,0.000000,,2013-03-15 10:42:00,
2013-03-15 04:52:00,42.0,22.0,-100.00,North,351,1.0,2.0,44,0.00,,,-99.99,0.000000,,2013-03-15 10:52:00,
2013-03-15 05:00:00,43.0,22.0,-100.00,NW,322,1.0,3.0,42,0.00,,,-99.99,0.000000,,2013-03-15 11:00:00,
2013-03-15 05:32:00,43.0,22.0,-100.00,NW,322,1.0,3.0,42,0.00,,,-99.99,0.000000,,2013-03-15 11:32:00,
2013-03-15 05:42:00,43.0,22.0,-100.00,NW,322,1.0,3.0,42,0.00,,,-99.99,0.000000,,2013-03-15 11:42:00,
2013-03-15 05:52:00,43.0,22.0,-100.00,NW,322,1.0,3.0,42,0.00,,,-99.99,0.000000,,2013-03-15 11:52:00,
2013-03-15 06:00:00,44.0,22.0,-100.00,NW,313,1.0,2.0,40,0.00,,,-99.99,0.000000,,2013-03-15 12:00:00,
2013-03-15 06:32:00,44.0,22.0,-100.00,NW,313,1.0,2.0,40,0.00,,,-99.99,0.000000,,2013-03-15 12:32:00,
2013-03-15 06:42:00,44.0,22.0,-100.00,NW,313,1.0,2.0,40,0.00,,,-99.99,0.000000,,2013-03-15 12:42:00,
2013-03-15 06:52:00,44.0,22.0,-100.00,NW,313,1.0,2.0,40,0.00,,,-99.99,0.000000,,2013-03-15 12:52:00,
2013-03-15 07:00:00,41.0,23.0,-100.00,NW,316,1.0,2.0,48,0.00,,,-99.99,0.000000,,2013-03-15 13:00:00,
2013-03-15 07:32:00,41.0,23.0,-100.00,NW,316,1.0,2.0,48,0.00,,,-99.99,0.000000,,2013-03-15 13:32:00,
2013-03-15 07:42:00,41.0,23.0,-100.00,NW,316,1.0,2.0,48,0.00,,,-99.99,0.000000,,2013-03-15 13:42:00,
2013-03-15 07:52:00,41.0,23.0,-100.00,NW,316,1.0,2.0,48,0.00,,,-99.99,0.000000,,2013-03-15 13:52:00,
2013-03-15 08:00:00,39.0,22.0,-100.00,NW,324,1.0,2.0,50,0.00,,,-99.99,1.820000,,2013-03-15 14:00:00,
2013-03-15 08:32:00,39.0,22.0,-100.00,NW,324,1.0,2.0,50,0.00,,,-99.99,1.820000,,2013-03-15 14:32:00,
2013-03-15 08:42:00,39.0,22.0,-100.00,NW,324,1.0,2.0,50,0.00,,,-99.99,1.820000,,2013-03-15 14:42:00,
2013-03-15 08:52:00,39.0,22.0,-100.00,NW,324,1.0,2.0,50,0.00,,,-99.99,1.820000,,2013-03-15 14:52:00,
2013-03-15 09:00:00,39.0,23.0,-100.00,ENE,69,0.0,1.0,51,0.00,,,-99.99,40.590000,,2013-03-15 15:00:00,
2013-03-15 09:33:00,39.0,23.0,-100.00,ENE,69,0.0,1.0,51,0.00,,,-99.99,40.590000,,2013-03-15 15:33:00,
2013-03-15 09:42:00,39.0,23.0,-100.00,ENE,69,0.0,1.0,51,0.00,,,-99.99,40.590000,,2013-03-15 15:42:00,
2013-03-15 09:52:00,39.0,23.0,-100.00,ENE,69,0.0,1.0,51,0.00,,,-99.99,40.590000,,2013-03-15 15:52:00,
2013-03-15 10:00:00,46.0,21.0,-100.00,WSW,257,2.0,5.0,35,0.00,,,-99.99,295.299988,,2013-03-15 16:00:00,
2013-03-15 10:32:00,46.0,21.0,-100.00,WSW,257,2.0,5.0,35,0.00,,,-99.99,295.299988,,2013-03-15 16:32:00,
2013-03-15 10:42:00,46.0,21.0,-100.00,WSW,257,2.0,5.0,35,0.00,,,-99.99,295.299988,,2013-03-15 16:42:00,
2013-03-15 10:52:00,46.0,21.0,-100.00,WSW,257,2.0,5.0,35,0.00,,,-99.99,295.299988,,2013-03-15 16:52:00,
2013-03-15 11:00:00,46.0,22.0,-100.00,WSW,255,3.0,6.0,37,0.00,,,-99.99,570.799988,,2013-03-15 17:00:00,
2013-03-15 11:32:00,46.0,22.0,-100.00,WSW,255,3.0,6.0,37,0.00,,,-99.99,570.799988,,2013-03-15 17:32:00,
2013-03-15 11:42:00,46.0,22.0,-100.00,WSW,255,3.0,6.0,37,0.00,,,-99.99,570.799988,,2013-03-15 17:42:00,
2013-03-15 11:52:00,46.0,22.0,-100.00,WSW,255,3.0,6.0,37,0.00,,,-99.99,570.799988,,2013-03-15 17:52:00,
2013-03-15 12:00:00,47.0,18.0,-100.00,WSW,258,5.0,9.0,30,0.00,,,-99.99,747.400024,,2013-03-15 18:00:00,
2013-03-15 12:32:00,47.0,18.0,-100.00,WSW,258,5.0,9.0,30,0.00,,,-99.99,747.400024,,2013-03-15 18:32:00,
2013-03-15 12:42:00,47.0,18.0,-100.00,WSW,258,5.0,9.0,30,0.00,,,-99.99,747.400024,,2013-03-15 18:42:00,
2013-03-15 12:52:00,47.0,18.0,-100.00,WSW,258,5.0,9.0,30,0.00,,,-99.99,747.400024,,2013-03-15 18:52:00,
2013-03-15 13:00:00,47.0,22.0,-100.00,WSW,256,7.0,10.0,36,0.00,,,-99.99,831.000000,,2013-03-15 19:00:00,
2013-03-15 13:32:00,47.0,22.0,-100.00,WSW,256,7.0,10.0,36,0.00,,,-99.99,831.000000,,2013-03-15 19:32:00,
2013-03-15 13:42:00,47.0,22.0,-100.00,WSW,256,7.0,10.0,36,0.00,,,-99.99,831.000000,,2013-03-15 19:42:00,
2013-03-15 13:52:00,47.0,22.0,-100.00,WSW,256,7.0,10.0,36,0.00,,,-99.99,831.000000,,2013-03-15 19:52:00,
2013-03-15 14:00:00,47.0,20.0,-100.00,WSW,255,5.0,13.0,33,0.00,,,-99.99,815.000000,,2013-03-15 20:00:00,
2013-03-15 14:31:00,47.0,20.0,-100.00,WSW,255,5.0,13.0,33,0.00,,,-99.99,815.000000,,2013-03-15 20:31:00,
2013-03-15 14:42:00,47.0,20.0,-100.00,WSW,255,5.0,13.0,33,0.00,,,-99.99,815.000000,,2013-03-15 20:42:00,
2013-03-15 14:51:00,47.0,20.0,-100.00,WSW,255,5.0,13.0,33,0.00,,,-99.99,815.000000,,2013-03-15 20:51:00,
2013-03-15 15:00:00,47.0,19.0,-100.00,WSW,255,6.0,13.0,32,0.00,,,-99.99,747.500000,,2013-03-15 21:00:00,
2013-03-15 15:32:00,47.0,19.0,-100.00,WSW,255,6.0,13.0,32,0.00,,,-99.99,747.500000,,2013-03-15 21:32:00,
2013-03-15 15:43:00,47.0,19.0,-100.00,WSW,255,6.0,13.0,32,0.00,,,-99.99,747.500000,,2013-03-15 21:43:00,
2013-03-15 15:52:00,47.0,19.0,-100.00,WSW,255,6.0,13.0,32,0.00,,,-99.99,747.500000,,2013-03-15 21:52:00,
2013-03-15 16:00:00,47.0,19.0,-100.00,West,265,7.0,10.0,31,0.00,,,-99.99,767.400024,,2013-03-15 22:00:00,
2013-03-15 16:32:00,47.0,19.0,-100.00,West,265,7.0,10.0,31,0.00,,,-99.99,767.400024,,2013-03-15 22:32:00,
2013-03-15 16:42:00,47.0,19.0,-100.00,West,265,7.0,10.0,31,0.00,,,-99.99,767.400024,,2013-03-15 22:42:00,
2013-03-15 16:52:00,47.0,19.0,-100.00,West,265,7.0,10.0,31,0.00,,,-99.99,767.400024,,2013-03-15 22:52:00,
2013-03-15 17:00:00,46.0,20.0,-100.00,WSW,257,4.0,7.0,35,0.00,,,-99.99,607.299988,,2013-03-15 23:00:00,
2013-03-15 17:32:00,46.0,20.0,-100.00,WSW,257,4.0,7.0,35,0.00,,,-99.99,607.299988,,2013-03-15 23:32:00,
2013-03-15 17:42:00,46.0,20.0,-100.00,WSW,257,4.0,7.0,35,0.00,,,-99.99,607.299988,,2013-03-15 23:42:00,
2013-03-15 17:52:00,46.0,20.0,-100.00,WSW,257,4.0,7.0,35,0.00,,,-99.99,607.299988,,2013-03-15 23:52:00,
2013-03-15 19:00:00,41.0,18.0,-100.00,WNW,285,3.0,6.0,37,0.00,,,-99.99,74.989998,,2013-03-16 01:00:00,
2013-03-15 19:32:00,41.0,18.0,-100.00,WNW,285,3.0,6.0,37,0.00,,,-99.99,74.989998,,2013-03-16 01:32:00,
2013-03-15 19:42:00,41.0,18.0,-100.00,WNW,285,3.0,6.0,37,0.00,,,-99.99,74.989998,,2013-03-16 01:42:00,
2013-03-15 19:52:00,41.0,18.0,-100.00,WNW,285,3.0,6.0,37,0.00,,,-99.99,74.989998,,2013-03-16 01:52:00,
2013-03-15 20:32:00,39.0,18.0,-100.00,North,6,1.0,1.0,43,0.00,,,-99.99,8.830000,,2013-03-16 02:32:00,
2013-03-15 20:42:00,39.0,18.0,-100.00,North,6,1.0,1.0,43,0.00,,,-99.99,8.830000,,2013-03-16 02:42:00,
2013-03-15 20:52:00,39.0,18.0,-100.00,North,6,1.0,1.0,43,0.00,,,-99.99,8.830000,,2013-03-16 02:52:00,
2013-03-15 21:00:00,37.0,20.0,-100.00,North,2,1.0,3.0,48,0.00,,,-99.99,0.000000,,2013-03-16 03:00:00,
2013-03-15 21:32:00,37.0,20.0,-100.00,North,2,1.0,3.0,48,0.00,,,-99.99,0.000000,,2013-03-16 03:32:00,
2013-03-15 21:43:00,37.0,20.0,-100.00,North,2,1.0,3.0,48,0.00,,,-99.99,0.000000,,2013-03-16 03:43:00,
2013-03-15 21:52:00,37.0,20.0,-100.00,North,2,1.0,3.0,48,0.00,,,-99.99,0.000000,,2013-03-16 03:52:00,
2013-03-15 22:00:00,37.0,17.0,-100.00,NNE,18,1.0,2.0,43,0.00,,,-99.99,0.000000,,2013-03-16 04:00:00,
2013-03-15 22:32:00,37.0,17.0,-100.00,NNE,18,1.0,2.0,43,0.00,,,-99.99,0.000000,,2013-03-16 04:32:00,
2013-03-15 22:42:00,37.0,17.0,-100.00,NNE,18,1.0,2.0,43,0.00,,,-99.99,0.000000,,2013-03-16 04:42:00,
2013-03-15 22:52:00,37.0,17.0,-100.00,NNE,18,1.0,2.0,43,0.00,,,-99.99,0.000000,,2013-03-16 04:52:00,
2013-03-15 23:00:00,36.0,17.0,-100.00,NNE,14,1.0,2.0,45,0.00,,,-99.99,0.000000,,2013-03-16 05:00:00,
2013-03-15 23:32:00,36.0,17.0,-100.00,NNE,14,1.0,2.0,45,0.00,,,-99.99,0.000000,,2013-03-16 05:32:00,
2013-03-15 23:42:00,36.0,17.0,-100.00,NNE,14,1.0,2.0,45,0.00,,,-99.99,0.000000,,2013-03-16 05:42:00,
2013-03-15 23:52:00,36.0,17.0,-100.00,NNE,14,1.0,2.0,45,0.00,,,-99.99,0.000000,,2013-03-16 05:52:00,